Time;durP1;ratioP1;P1;durP2;ratioP2;P2;SDS_P1;SDS_P2;PMS_P1;PMS_P2;Temp;Humidity;BMP_temperature;BMP_pressure;BME280_temperature;BME280_humidity;BME280_pressure;Samples;Min_cycle;Max_cycle;Signal;HPM_P1;HPM_P2
2022/09/23 00:00:46;;;;;;;9.70;6.30;;;;;;;12.70;86.12;99320.03;4984980;28;20646;-50
2022/09/23 00:03:12;;;;;;;10.02;6.57;;;;;;;12.85;86.28;99349.75;4955125;28;20054;-45
2022/09/23 00:05:38;;;;;;;9.48;6.63;;;;;;;12.82;86.00;99347.28;4945246;28;20049;-50
2022/09/23 00:08:07;;;;;;;9.55;7.25;;;;;;;12.55;85.69;99307.75;4937706;28;20058;-47
2022/09/23 00:10:36;;;;;;;10.75;6.95;;;;;;;12.79;85.62;99350.03;4945526;28;20081;-51
2022/09/23 00:13:02;;;;;;;11.45;6.32;;;;;;;12.79;85.56;99351.78;4956766;28;20050;-53
2022/09/23 00:15:30;;;;;;;10.27;6.15;;;;;;;12.65;85.70;99334.22;4969187;28;20043;-53
2022/09/23 00:17:56;;;;;;;9.93;6.43;;;;;;;12.78;85.66;99350.09;4956028;28;20583;-50
2022/09/23 00:20:22;;;;;;;9.68;6.60;;;;;;;12.80;85.71;99349.13;4960482;28;20091;-49
2022/09/23 00:22:48;;;;;;;10.50;6.07;;;;;;;12.80;85.72;99348.28;4983736;28;20431;-49
2022/09/23 00:25:14;;;;;;;9.40;6.20;;;;;;;12.65;85.70;99324.63;4970332;28;20041;-49
2022/09/23 00:27:41;;;;;;;10.43;7.00;;;;;;;12.79;85.82;99342.19;4982159;28;20588;-45
2022/09/23 00:30:08;;;;;;;8.98;6.53;;;;;;;12.81;85.83;99350.81;4966246;28;20092;-46
2022/09/23 00:32:35;;;;;;;12.15;6.53;;;;;;;12.82;85.63;99351.66;4961902;28;20038;-50
2022/09/23 00:35:02;;;;;;;13.55;6.85;;;;;;;12.80;85.79;99350.88;4971861;28;20038;-50
2022/09/23 00:37:30;;;;;;;10.25;5.68;;;;;;;12.81;85.97;99357.78;4964942;28;20039;-49
2022/09/23 00:39:56;;;;;;;11.80;7.05;;;;;;;12.79;86.08;99355.25;4972813;28;20097;-50
2022/09/23 00:42:23;;;;;;;8.18;6.03;;;;;;;12.78;85.69;99355.31;4973979;28;20137;-47
2022/09/23 00:44:53;;;;;;;8.57;6.30;;;;;;;12.77;85.81;99346.63;4981145;28;20057;-48
2022/09/23 00:47:21;;;;;;;8.13;6.18;;;;;;;12.80;85.95;99359.56;4939725;28;20046;-46
2022/09/23 00:49:52;;;;;;;9.18;6.22;;;;;;;12.67;85.62;99322.78;4955955;28;20141;-46
2022/09/23 00:52:19;;;;;;;10.32;6.65;;;;;;;12.84;85.58;99355.03;4978786;28;20057;-46
2022/09/23 00:54:46;;;;;;;9.85;6.45;;;;;;;12.84;85.44;99355.88;4966178;28;20038;-46
2022/09/23 00:57:14;;;;;;;10.25;6.30;;;;;;;12.85;85.60;99356.72;4986095;28;20140;-53
2022/09/23 00:59:41;;;;;;;9.75;6.57;;;;;;;12.86;85.48;99359.25;4967997;28;20049;-47
2022/09/23 01:02:08;;;;;;;8.50;6.38;;;;;;;12.84;85.53;99350.66;4960279;28;20094;-52
2022/09/23 01:04:34;;;;;;;9.07;6.32;;;;;;;12.83;85.33;99361.16;4959757;28;20043;-47
2022/09/23 01:07:00;;;;;;;9.93;6.60;;;;;;;12.83;85.19;99364.59;4965909;28;20038;-51
2022/09/23 01:09:26;;;;;;;9.18;6.18;;;;;;;12.82;85.25;99365.56;4980556;28;20042;-49
2022/09/23 01:12:10;;;;;;;8.60;6.30;;;;;;;12.82;85.32;99365.56;4965403;28;20125;-48
2022/09/23 01:14:51;;;;;;;8.57;6.75;;;;;;;12.80;85.09;99364.78;4983587;28;20038;-48
2022/09/23 01:17:20;;;;;;;8.75;6.55;;;;;;;12.82;85.20;99362.09;4942821;28;20122;-52
2022/09/23 01:19:53;;;;;;;9.68;6.47;;;;;;;12.82;84.98;99359.50;4978296;28;20034;-54
2022/09/23 01:22:43;;;;;;;10.57;5.90;;;;;;;12.81;84.88;99363.84;4982437;28;20422;-51
2022/09/23 01:25:46;;;;;;;8.98;5.75;;;;;;;12.80;84.72;99364.78;4972117;28;20598;-48
2022/09/23 01:28:26;;;;;;;9.30;6.50;;;;;;;12.77;84.75;99359.69;4922404;29;20048;-47
2022/09/23 01:31:32;;;;;;;11.55;6.78;;;;;;;12.79;84.95;99355.25;4938255;28;20137;-49
2022/09/23 01:34:06;;;;;;;11.23;6.35;;;;;;;12.61;84.63;99324.84;4980504;28;20498;-47
2022/09/23 01:36:42;;;;;;;7.20;5.90;;;;;;;12.80;84.72;99367.38;4963573;28;20547;-49
2022/09/23 01:39:41;;;;;;;8.35;5.88;;;;;;;12.80;84.49;99358.69;4946865;28;20071;-47
2022/09/23 01:42:21;;;;;;;9.23;6.35;;;;;;;12.78;84.56;99365.75;4959103;28;20572;-45
2022/09/23 01:45:01;;;;;;;9.73;6.57;;;;;;;12.78;84.18;99365.75;4974268;28;20054;-46
2022/09/23 01:47:41;;;;;;;9.00;6.22;;;;;;;12.78;84.04;99366.59;4962814;28;20043;-53
2022/09/23 01:53:13;;;;;;;8.48;5.32;;;;;;;12.81;83.90;99366.47;4960707;28;20120;-47
2022/09/23 01:55:43;;;;;;;6.93;5.43;;;;;;;12.82;83.76;99373.38;4962758;28;20078;-52
2022/09/23 01:58:14;;;;;;;8.57;5.97;;;;;;;12.68;83.72;99342.72;4952650;28;20043;-51
2022/09/23 02:00:44;;;;;;;10.40;6.68;;;;;;;12.84;83.48;99370.69;4945423;28;20037;-48
2022/09/23 02:03:16;;;;;;;9.65;6.35;;;;;;;12.80;83.50;99370.00;4979174;28;20129;-49
2022/09/23 02:05:55;;;;;;;11.93;6.20;;;;;;;12.83;83.22;99369.81;4966880;28;20593;-51
2022/09/23 02:08:34;;;;;;;9.18;5.97;;;;;;;12.84;83.08;99374.13;4978308;28;20069;-47
2022/09/23 02:11:08;;;;;;;8.63;5.82;;;;;;;12.84;83.10;99371.53;4958082;28;20430;-48
2022/09/23 02:13:53;;;;;;;7.88;5.53;;;;;;;12.85;82.82;99361.94;4951974;28;20635;-48
2022/09/23 02:16:21;;;;;;;7.93;5.75;;;;;;;12.84;82.77;99361.09;4954943;28;20049;-48
2022/09/23 02:18:53;;;;;;;9.73;6.25;;;;;;;12.82;82.60;99360.34;4984860;28;20042;-52
2022/09/23 02:21:20;;;;;;;9.43;5.40;;;;;;;12.86;83.03;99366.25;4952045;28;20129;-49
2022/09/23 02:23:59;;;;;;;9.93;6.15;;;;;;;12.86;82.97;99358.41;4964449;28;20053;-49
2022/09/23 02:26:40;;;;;;;8.73;5.90;;;;;;;12.85;82.18;99370.59;4980844;28;20053;-49
2022/09/23 02:29:20;;;;;;;8.88;5.55;;;;;;;12.85;82.12;99370.59;4964297;28;20050;-50
2022/09/23 02:31:53;;;;;;;8.18;5.55;;;;;;;12.84;81.97;99368.06;4933450;28;20066;-50
2022/09/23 02:34:45;;;;;;;9.43;5.72;;;;;;;12.85;82.40;99369.75;4980481;28;20146;-48
2022/09/23 02:37:39;;;;;;;11.00;5.35;;;;;;;12.84;82.50;99368.06;4967003;28;20185;-47
2022/09/23 02:40:23;;;;;;;8.65;5.60;;;;;;;12.81;81.95;99366.47;4955755;28;20042;-53
2022/09/23 02:43:08;;;;;;;7.00;5.35;;;;;;;12.80;81.77;99364.78;4950915;29;20669;-48
2022/09/23 02:45:36;;;;;;;6.53;4.88;;;;;;;12.76;81.70;99362.38;4951376;28;20643;-50
2022/09/23 02:48:18;;;;;;;8.75;5.63;;;;;;;12.78;81.79;99365.75;4985734;28;20042;-49
2022/09/23 02:50:46;;;;;;;7.68;5.13;;;;;;;12.77;81.79;99369.31;4960995;28;20035;-47
2022/09/23 02:53:14;;;;;;;8.95;5.60;;;;;;;12.77;81.85;99362.28;4985323;28;20150;-47
2022/09/23 02:55:41;;;;;;;10.73;6.45;;;;;;;12.78;81.81;99363.13;4978801;28;20542;-48
2022/09/23 02:58:09;;;;;;;7.03;5.00;;;;;;;12.79;81.85;99368.28;4981305;28;20121;-46
2022/09/23 03:00:58;;;;;;;8.35;5.63;;;;;;;12.80;81.96;99358.69;4982324;28;20046;-53
2022/09/23 03:03:52;;;;;;;7.85;5.43;;;;;;;12.79;82.10;99368.28;4972773;28;20224;-49
2022/09/23 03:06:42;;;;;;;7.57;5.05;;;;;;;12.80;82.43;99359.56;4988801;28;20589;-46
2022/09/23 03:09:12;;;;;;;8.25;5.82;;;;;;;12.78;82.49;99363.13;4962534;28;20045;-51
2022/09/23 03:11:40;;;;;;;10.60;5.78;;;;;;;12.76;82.34;99365.84;4965414;28;20105;-51
2022/09/23 03:14:15;;;;;;;8.82;6.15;;;;;;;12.76;82.82;99362.38;4965451;28;20122;-49
2022/09/23 03:17:02;;;;;;;10.55;5.93;;;;;;;12.77;82.75;99364.91;4969153;28;20042;-51
2022/09/23 03:19:34;;;;;;;10.10;6.88;;;;;;;12.76;82.98;99368.44;4966087;28;20046;-49
2022/09/23 03:22:07;;;;;;;13.80;6.85;;;;;;;12.76;82.99;99363.22;4974384;28;20047;-50
2022/09/23 03:24:35;;;;;;;10.00;6.32;;;;;;;12.76;83.19;99372.81;4959411;28;20047;-49
2022/09/23 03:27:04;;;;;;;8.90;6.57;;;;;;;12.77;83.13;99371.91;4962191;28;20042;-54
2022/09/23 03:29:31;;;;;;;;;;;;;;;12.79;83.10;99370.91;4946890;28;20053;-51
2022/09/23 03:31:57;;;;;;;8.73;5.55;;;;;;;12.74;83.18;99373.72;4954560;28;19917;-48
2022/09/23 03:34:26;;;;;;;9.48;5.68;;;;;;;12.76;82.94;99370.22;4961443;28;20137;-47
2022/09/23 03:37:01;;;;;;;11.45;6.38;;;;;;;12.67;83.07;99351.47;4942000;28;20041;-48
2022/09/23 03:40:04;;;;;;;10.52;6.70;;;;;;;12.81;83.15;99365.63;4956224;28;21130;-49
2022/09/23 03:42:32;;;;;;;11.13;6.57;;;;;;;12.76;83.20;99368.44;4962345;28;20113;-47
2022/09/23 03:44:59;;;;;;;11.30;6.22;;;;;;;12.80;83.33;99367.38;4974506;28;20054;-47
2022/09/23 03:47:27;;;;;;;12.85;6.15;;;;;;;12.68;83.31;99339.28;4966500;28;20046;-51
2022/09/23 03:49:53;;;;;;;11.13;6.43;;;;;;;12.83;83.18;99367.22;4974662;28;20096;-51
2022/09/23 03:52:21;;;;;;;10.57;6.63;;;;;;;12.83;83.10;99366.38;4978459;28;20035;-46
2022/09/23 03:54:48;;;;;;;9.73;6.93;;;;;;;12.84;83.19;99355.88;4971421;28;20097;-46
2022/09/23 03:57:14;;;;;;;12.13;6.90;;;;;;;12.85;83.28;99354.09;4987509;28;20443;-50
2022/09/23 03:59:40;;;;;;;9.13;6.20;;;;;;;12.87;83.38;99349.69;4986696;28;20170;-47
2022/09/23 04:02:06;;;;;;;10.98;6.45;;;;;;;12.73;83.17;99335.53;4982928;28;20034;-48
2022/09/23 04:04:36;;;;;;;8.65;6.07;;;;;;;12.92;83.01;99355.50;4973583;28;20757;-52
2022/09/23 04:07:03;;;;;;;10.27;6.20;;;;;;;12.95;82.79;99352.72;4985660;28;20073;-48
2022/09/23 04:09:28;;;;;;;14.70;6.50;;;;;;;12.99;82.52;99351.66;4981834;28;20038;-49
2022/09/23 04:11:54;;;;;;;10.23;6.22;;;;;;;12.95;82.14;99353.59;4945764;28;20125;-50
2022/09/23 04:14:21;;;;;;;11.00;6.10;;;;;;;12.99;82.16;99355.13;4944717;28;20116;-52
2022/09/23 04:16:47;;;;;;;12.10;6.35;;;;;;;12.89;82.29;99332.16;4976725;28;20046;-49
2022/09/23 04:19:13;;;;;;;10.90;6.25;;;;;;;13.06;82.18;99360.88;4971237;28;20038;-48
2022/09/23 04:21:40;;;;;;;10.30;6.55;;;;;;;13.12;81.99;99350.19;4981980;28;20096;-48
2022/09/23 04:24:06;;;;;;;12.18;7.18;;;;;;;13.16;81.75;99336.03;4969796;28;20597;-49
2022/09/23 04:26:33;;;;;;;10.63;5.78;;;;;;;13.20;81.35;99340.19;4971338;28;20146;-53
2022/09/23 04:28:58;;;;;;;13.40;6.72;;;;;;;13.23;80.96;99336.59;4969938;28;20077;-50
2022/09/23 04:31:24;;;;;;;12.18;6.70;;;;;;;13.05;80.63;99309.59;4976183;28;20073;-50
2022/09/23 04:33:54;;;;;;;9.77;5.47;;;;;;;13.21;79.77;99344.47;4986596;28;20383;-48
2022/09/23 04:36:20;;;;;;;12.93;5.88;;;;;;;13.19;78.77;99337.66;4979104;28;20101;-46
2022/09/23 04:38:47;;;;;;;9.30;6.43;;;;;;;13.19;77.88;99335.06;4969742;28;20039;-49
2022/09/23 04:41:14;;;;;;;7.95;4.97;;;;;;;13.09;77.37;99324.19;4968390;28;20055;-47
2022/09/23 04:43:41;;;;;;;15.98;6.07;;;;;;;13.28;76.92;99343.25;4975084;28;20046;-54
2022/09/23 04:46:09;;;;;;;9.23;5.70;;;;;;;13.36;76.17;99332.41;4975746;28;20049;-52
2022/09/23 04:48:37;;;;;;;10.02;5.65;;;;;;;13.40;75.52;99311.28;4952150;28;20502;-52
2022/09/23 04:51:04;;;;;;;12.07;5.78;;;;;;;13.41;75.61;99312.97;4977901;28;20462;-51
2022/09/23 04:53:30;;;;;;;11.85;6.80;;;;;;;13.43;75.87;99307.69;4971613;28;20046;-50
2022/09/23 04:56:04;;;;;;;8.48;5.45;;;;;;;13.40;75.53;99289.53;4956735;28;20498;-49
2022/09/23 04:58:30;;;;;;;8.75;4.72;;;;;;;13.21;74.92;99265.31;4973730;28;21025;-48
2022/09/23 05:00:56;;;;;;;10.02;4.97;;;;;;;13.38;74.10;99299.25;4940845;28;20060;-48
2022/09/23 05:03:23;;;;;;;10.50;4.30;;;;;;;13.42;73.54;99296.41;4974044;28;20054;-51
2022/09/23 05:05:49;;;;;;;6.53;4.72;;;;;;;13.17;73.45;99251.59;4945183;28;20417;-50
2022/09/23 05:08:15;;;;;;;8.25;4.90;;;;;;;13.57;73.42;99302.56;4987383;28;20034;-49
2022/09/23 05:10:41;;;;;;;13.45;7.45;;;;;;;13.47;72.86;99275.25;4988829;28;20128;-47
2022/09/23 05:13:08;;;;;;;13.70;5.88;;;;;;;13.90;72.37;99308.63;4952679;28;20049;-48
2022/09/23 05:15:33;;;;;;;13.90;6.20;;;;;;;14.20;71.66;99318.34;4971273;28;20128;-49
2022/09/23 05:18:01;;;;;;;14.70;5.38;;;;;;;14.37;70.44;99320.91;4987435;28;20133;-50
2022/09/23 05:20:27;;;;;;;8.38;5.00;;;;;;;14.44;69.74;99309.19;4983870;28;20054;-49
2022/09/23 05:22:54;;;;;;;7.75;4.45;;;;;;;14.47;69.27;99311.63;4963940;28;20509;-53
2022/09/23 05:25:22;;;;;;;9.02;4.60;;;;;;;14.54;69.36;99314.75;4972790;28;20489;-51
2022/09/23 05:27:49;;;;;;;9.40;5.28;;;;;;;14.70;68.91;99312.94;4975881;28;20069;-50
2022/09/23 05:30:15;;;;;;;19.30;11.50;;;;;;;14.98;68.35;99315.63;4981923;28;20039;-47
2022/09/23 05:32:40;;;;;;;8.77;4.60;;;;;;;15.15;67.52;99328.59;4970465;28;20049;-48
2022/09/23 05:35:06;;;;;;;8.13;5.10;;;;;;;15.28;66.41;99320.88;4976130;28;20047;-52
2022/09/23 05:37:33;;;;;;;10.63;4.40;;;;;;;15.40;65.86;99319.28;4969006;28;20042;-50
2022/09/23 05:39:59;;;;;;;8.00;4.75;;;;;;;15.48;65.26;99310.03;4975658;28;20722;-49
2022/09/23 05:42:26;;;;;;;8.98;4.50;;;;;;;15.54;65.07;99306.25;4959692;28;20120;-51
2022/09/23 05:44:52;;;;;;;9.18;4.43;;;;;;;15.64;64.11;99304.75;4966261;28;20057;-47
2022/09/23 05:47:17;;;;;;;14.60;5.65;;;;;;;16.03;62.94;99310.13;4977585;28;20046;-49
2022/09/23 05:49:43;;;;;;;16.48;4.93;;;;;;;16.25;62.13;99279.94;4985728;28;20050;-49
2022/09/23 05:52:09;;;;;;;9.07;4.18;;;;;;;16.42;61.57;99263.97;4969849;28;20038;-46
2022/09/23 05:54:36;;;;;;;7.93;4.93;;;;;;;17.37;60.67;99306.63;4956720;28;20047;-53
2022/09/23 05:57:02;;;;;;;6.18;4.13;;;;;;;18.07;58.75;99307.84;4967514;28;20054;-54
2022/09/23 05:59:28;;;;;;;8.40;5.28;;;;;;;18.26;58.17;99310.00;4973034;28;20173;-51
2022/09/23 06:01:55;;;;;;;10.30;6.53;;;;;;;18.16;57.81;99315.06;4988482;28;20046;-50
2022/09/23 06:04:21;;;;;;;8.35;5.45;;;;;;;18.02;57.70;99317.84;4964455;28;20459;-47
2022/09/23 06:06:47;;;;;;;10.68;6.03;;;;;;;17.89;57.82;99322.31;4962029;28;20061;-46
2022/09/23 06:09:14;;;;;;;6.72;3.92;;;;;;;17.53;57.58;99296.75;4943437;28;20073;-50
2022/09/23 06:11:40;;;;;;;4.40;3.75;;;;;;;17.45;57.74;99324.47;4988382;28;20073;-49
2022/09/23 06:14:08;;;;;;;6.22;4.00;;;;;;;17.19;57.90;99326.25;4982732;28;20530;-47
2022/09/23 06:16:34;;;;;;;5.15;3.90;;;;;;;16.65;58.28;99273.81;4980713;28;20039;-49
2022/09/23 06:19:04;;;;;;;7.30;3.58;;;;;;;16.81;58.40;99319.13;4981282;28;20514;-51
2022/09/23 06:21:31;;;;;;;6.07;3.92;;;;;;;16.66;58.74;99299.13;4948471;28;20868;-47
2022/09/23 06:23:59;;;;;;;7.75;3.88;;;;;;;16.55;59.14;99304.19;4977566;28;20498;-46
2022/09/23 06:26:25;;;;;;;7.05;4.15;;;;;;;16.47;59.58;99320.44;4973115;28;20529;-50
2022/09/23 06:28:50;;;;;;;8.52;4.28;;;;;;;16.26;60.00;99313.94;4956868;28;20067;-46
2022/09/23 06:31:16;;;;;;;6.32;4.40;;;;;;;16.06;60.97;99320.44;4971390;28;20126;-48
2022/09/23 06:33:43;;;;;;;8.15;4.60;;;;;;;15.89;61.31;99325.91;4979267;28;20043;-48
2022/09/23 06:36:10;;;;;;;9.73;5.07;;;;;;;15.74;62.09;99337.31;4959526;28;20038;-48
2022/09/23 06:38:42;;;;;;;8.40;4.90;;;;;;;15.59;62.82;99333.00;4978929;28;20046;-51
2022/09/23 06:41:08;;;;;;;6.90;4.45;;;;;;;15.48;63.55;99346.72;4979026;28;20129;-50
2022/09/23 06:43:34;;;;;;;6.68;4.15;;;;;;;15.39;63.21;99355.09;4955842;28;20140;-53
2022/09/23 06:46:02;;;;;;;9.43;5.13;;;;;;;15.30;63.62;99354.81;4967873;28;20050;-50
2022/09/23 06:48:29;;;;;;;12.40;5.60;;;;;;;15.16;64.21;99353.00;4961200;28;20421;-49
2022/09/23 06:51:01;;;;;;;11.18;6.75;;;;;;;15.05;64.60;99335.31;4972967;28;20078;-50
2022/09/23 06:53:30;;;;;;;7.53;4.60;;;;;;;14.69;65.33;99300.78;4954936;28;20514;-51
2022/09/23 06:55:59;;;;;;;13.70;6.45;;;;;;;14.92;65.65;99333.47;4955379;28;20053;-48
2022/09/23 06:58:25;;;;;;;8.43;4.65;;;;;;;14.99;65.40;99335.66;4970829;28;20054;-49
2022/09/23 07:00:52;;;;;;;7.18;4.18;;;;;;;15.08;64.84;99327.25;4956263;28;20034;-51
2022/09/23 07:03:19;;;;;;;8.52;4.30;;;;;;;15.25;64.43;99334.13;4971493;28;20066;-52
2022/09/23 07:05:45;;;;;;;9.50;4.15;;;;;;;15.45;63.82;99338.19;4972333;28;20074;-50
2022/09/23 07:08:11;;;;;;;8.13;4.40;;;;;;;16.19;62.41;99338.03;4970313;28;20085;-53
2022/09/23 07:10:36;;;;;;;5.40;3.78;;;;;;;17.53;58.92;99306.41;4957925;28;20042;-50
2022/09/23 07:13:03;;;;;;;7.90;4.15;;;;;;;18.43;56.97;99329.84;4970136;28;20049;-50
2022/09/23 07:15:29;;;;;;;6.70;3.67;;;;;;;18.59;55.80;99319.91;4953147;28;20035;-54
2022/09/23 07:18:14;;;;;;;7.78;4.32;;;;;;;18.36;55.95;99320.72;4971861;28;20072;-50
2022/09/23 07:20:39;;;;;;;6.47;4.00;;;;;;;18.03;55.84;99310.78;4974867;28;20522;-49
2022/09/23 07:23:05;;;;;;;6.03;4.10;;;;;;;17.78;56.21;99325.69;4972381;28;20054;-47
2022/09/23 07:25:32;;;;;;;6.20;3.92;;;;;;;17.43;56.58;99324.56;4972069;28;20088;-48
2022/09/23 07:27:59;;;;;;;6.10;4.07;;;;;;;17.12;56.94;99335.47;4971894;28;20042;-51
2022/09/23 07:30:25;;;;;;;7.22;4.70;;;;;;;16.89;56.98;99335.22;4952957;28;20053;-50
2022/09/23 07:32:52;;;;;;;5.28;4.00;;;;;;;16.66;57.53;99320.13;4969891;28;20301;-50
2022/09/23 07:35:18;;;;;;;6.15;4.00;;;;;;;16.61;57.49;99340.56;4970189;28;20039;-51
2022/09/23 07:37:44;;;;;;;6.50;3.80;;;;;;;16.52;58.10;99331.50;4970037;28;20299;-52
2022/09/23 07:40:11;;;;;;;15.38;6.63;;;;;;;16.43;58.53;99332.06;4972671;28;20046;-47
2022/09/23 07:42:39;;;;;;;9.70;4.65;;;;;;;16.35;59.03;99331.72;4970868;28;20129;-51
2022/09/23 07:45:07;;;;;;;15.83;6.47;;;;;;;16.32;58.97;99329.31;4970087;28;20070;-47
2022/09/23 07:47:34;;;;;;;6.85;4.60;;;;;;;16.38;59.01;99331.50;4953143;28;20057;-50
2022/09/23 07:50:00;;;;;;;7.47;4.15;;;;;;;16.33;59.07;99328.34;4970352;28;20049;-50
2022/09/23 07:52:26;;;;;;;5.32;3.70;;;;;;;16.22;58.78;99333.44;4969300;28;20043;-47
2022/09/23 07:54:51;;;;;;;8.32;5.50;;;;;;;16.13;58.75;99341.03;4967739;28;20051;-48
2022/09/23 07:57:17;;;;;;;8.32;4.60;;;;;;;16.10;58.59;99332.44;4970785;28;20049;-51
2022/09/23 07:59:43;;;;;;;8.93;4.57;;;;;;;16.23;58.52;99327.25;4953510;28;20038;-48
2022/09/23 08:02:11;;;;;;;7.70;4.50;;;;;;;16.36;58.05;99332.56;4968970;28;20430;-49
2022/09/23 08:04:37;;;;;;;5.93;3.90;;;;;;;16.54;57.96;99318.25;4938074;28;20043;-53
2022/09/23 08:07:04;;;;;;;6.72;4.25;;;;;;;16.70;57.45;99323.38;4955908;28;20042;-54
2022/09/23 08:09:40;;;;;;;12.93;4.63;;;;;;;16.81;57.47;99326.16;4955565;28;20116;-50
2022/09/23 08:12:15;;;;;;;9.50;4.10;;;;;;;16.98;57.46;99309.28;4954265;28;20101;-53
2022/09/23 08:14:41;;;;;;;12.70;4.90;;;;;;;16.98;57.21;99291.75;4952729;28;20114;-56
2022/09/23 08:17:07;;;;;;;8.82;4.75;;;;;;;17.20;56.99;99328.78;4961954;28;20046;-56
2022/09/23 08:19:33;;;;;;;6.95;4.25;;;;;;;17.25;56.67;99315.34;4967875;28;20049;-56
2022/09/23 08:21:59;;;;;;;6.28;4.10;;;;;;;17.51;55.98;99311.78;4949610;28;20046;-54
2022/09/23 08:24:25;;;;;;;16.98;4.88;;;;;;;17.84;54.82;99284.97;4969182;28;20395;-58
2022/09/23 08:26:52;;;;;;;9.25;4.70;;;;;;;18.42;54.32;99305.31;4968635;28;20047;-56
2022/09/23 08:29:23;;;;;;;9.00;4.43;;;;;;;18.83;53.55;99304.13;4966067;28;20522;-56
2022/09/23 08:31:50;;;;;;;8.40;4.63;;;;;;;18.87;53.59;99306.41;4962853;28;20085;-52
2022/09/23 08:34:18;;;;;;;8.70;5.22;;;;;;;18.83;53.43;99306.75;4968925;28;20050;-55
2022/09/23 08:36:44;;;;;;;6.50;4.60;;;;;;;18.51;53.73;99303.81;4966601;28;20045;-58
2022/09/23 08:39:15;;;;;;;7.47;4.40;;;;;;;18.11;54.08;99309.28;4952767;28;20163;-58
2022/09/23 08:42:11;;;;;;;12.88;4.78;;;;;;;17.81;54.84;99308.00;4966564;28;20047;-57
2022/09/23 08:44:48;;;;;;;4.38;3.60;;;;;;;17.70;55.00;99308.72;4953557;28;20061;-56
2022/09/23 08:47:27;;;;;;;8.85;3.38;;;;;;;17.56;54.64;99308.81;4968799;28;20146;-54
2022/09/23 08:50:00;;;;;;;6.43;4.32;;;;;;;17.73;54.46;99308.53;4975978;28;20056;-57
2022/09/23 08:52:38;;;;;;;4.45;3.50;;;;;;;18.79;52.51;99298.22;4951006;28;20034;-55
2022/09/23 08:55:05;;;;;;;4.53;3.43;;;;;;;19.11;51.77;99295.81;4954795;28;20653;-57
2022/09/23 08:57:49;;;;;;;6.68;3.50;;;;;;;19.38;51.22;99303.41;4972472;28;20057;-54
2022/09/23 09:00:19;;;;;;;6.15;3.22;;;;;;;20.87;47.83;99302.94;4969709;28;20061;-56
2022/09/23 09:02:46;;;;;;;4.20;2.97;;;;;;;21.54;45.99;99299.94;4952537;28;20041;-57
2022/09/23 09:05:18;;;;;;;4.03;2.42;;;;;;;21.82;44.13;99303.69;4967671;28;20050;-57
2022/09/23 09:07:44;;;;;;;6.82;4.20;;;;;;;21.69;44.03;99298.63;4965700;28;20042;-55
2022/09/23 09:10:18;;;;;;;4.22;2.85;;;;;;;22.87;42.26;99308.44;4951256;28;20065;-51
2022/09/23 09:13:06;;;;;;;3.97;2.50;;;;;;;24.17;39.22;99327.19;4951954;28;20470;-50
2022/09/23 09:15:35;;;;;;;4.85;2.88;;;;;;;23.63;40.42;99317.28;4967306;28;20082;-50
2022/09/23 09:18:18;;;;;;;8.57;5.30;;;;;;;22.79;40.53;99311.78;4950961;28;20043;-50
2022/09/23 09:20:56;;;;;;;12.77;9.82;;;;;;;21.65;41.11;99277.84;4946862;28;20047;-53
2022/09/23 09:23:27;;;;;;;4.55;3.20;;;;;;;21.19;42.54;99286.22;4965787;28;20514;-50
2022/09/23 09:25:56;;;;;;;5.00;2.70;;;;;;;20.54;43.61;99276.63;4950571;28;20097;-53
2022/09/23 09:28:24;;;;;;;5.70;3.05;;;;;;;20.02;44.80;99282.59;4950433;28;20514;-51
2022/09/23 09:31:15;;;;;;;4.47;2.58;;;;;;;19.56;45.45;99274.84;4950539;28;20097;-54
2022/09/23 09:33:49;;;;;;;5.97;3.30;;;;;;;19.29;46.03;99273.34;4951450;28;20242;-60
2022/09/23 09:36:47;;;;;;;3.95;3.13;;;;;;;19.15;46.64;99267.44;4969065;28;20422;-55
2022/09/23 09:39:14;;;;;;;13.38;3.90;;;;;;;18.84;47.06;99263.66;4947578;28;20091;-59
2022/09/23 09:41:42;;;;;;;6.65;3.63;;;;;;;18.56;47.85;99262.22;4958795;28;20593;-59
2022/09/23 09:44:23;;;;;;;4.78;3.55;;;;;;;18.29;48.40;99246.63;4948221;28;20125;-54
2022/09/23 09:46:55;;;;;;;5.65;3.75;;;;;;;18.03;49.12;99245.88;4965836;28;20070;-57
2022/09/23 09:49:24;;;;;;;4.13;3.63;;;;;;;17.89;49.42;99253.06;4967399;28;20514;-54
2022/09/23 09:52:15;;;;;;;7.43;3.88;;;;;;;17.83;49.44;99267.50;4971141;28;20145;-55
2022/09/23 09:54:42;;;;;;;7.78;3.95;;;;;;;17.81;49.96;99265.91;4957421;28;20507;-53
2022/09/23 09:57:16;;;;;;;5.20;3.53;;;;;;;17.78;50.37;99270.47;4968873;28;20101;-56
2022/09/23 09:59:42;;;;;;;5.80;3.53;;;;;;;17.79;50.44;99266.03;4973830;28;20105;-58
2022/09/23 10:02:28;;;;;;;5.32;3.42;;;;;;;17.96;50.11;99267.44;4968866;28;20043;-58
2022/09/23 10:05:00;;;;;;;7.15;4.15;;;;;;;18.17;50.03;99264.13;4941459;28;20556;-57
2022/09/23 10:07:30;;;;;;;5.18;3.92;;;;;;;18.43;49.47;99259.59;4953264;28;20462;-59
2022/09/23 10:10:25;;;;;;;7.82;3.67;;;;;;;18.54;49.29;99272.84;4951349;28;20042;-57
2022/09/23 10:12:51;;;;;;;7.10;4.20;;;;;;;18.59;49.51;99260.19;4968306;28;20507;-54
2022/09/23 10:15:43;;;;;;;5.50;4.68;;;;;;;18.71;49.25;99260.25;4971246;28;20049;-58
2022/09/23 10:18:22;;;;;;;6.45;4.65;;;;;;;18.93;49.01;99269.06;4951204;28;20046;-55
2022/09/23 10:20:48;;;;;;;8.35;4.40;;;;;;;19.16;48.79;99277.00;4939074;28;20724;-51
2022/09/23 10:23:21;;;;;;;8.30;3.80;;;;;;;19.63;47.92;99274.22;4939913;28;20161;-53
2022/09/23 10:26:01;;;;;;;5.60;3.40;;;;;;;20.02;46.72;99278.16;4955377;28;20085;-54
2022/09/23 10:28:50;;;;;;;5.85;3.35;;;;;;;20.33;45.84;99276.59;4943380;28;20038;-57
2022/09/23 10:31:25;;;;;;;8.15;3.20;;;;;;;20.64;45.39;99274.91;4939128;28;20137;-55
2022/09/23 10:33:59;;;;;;;4.60;3.30;;;;;;;20.63;45.20;99268.78;4960948;28;20542;-55
2022/09/23 10:36:27;;;;;;;7.63;3.67;;;;;;;20.78;45.19;99271.16;4951120;28;20050;-56
2022/09/23 10:46:36;;;;;;;5.07;3.30;;;;;;;20.85;44.76;99280.22;4971708;28;20169;-57
2022/09/23 10:47:42;;;;;;;7.40;3.65;;;;;;;19.77;45.70;99265.25;4953642;28;20066;-57
2022/09/23 10:50:59;;;;;;;6.13;3.65;;;;;;;19.37;46.52;99254.28;4936061;28;20399;-57
2022/09/23 10:53:46;;;;;;;5.78;3.50;;;;;;;18.99;47.37;99246.69;4926144;28;20062;-57
2022/09/23 10:56:21;;;;;;;7.28;3.60;;;;;;;18.67;48.23;99237.72;4971313;28;20035;-58
2022/09/23 10:59:01;;;;;;;3.63;3.10;;;;;;;18.33;48.75;99234.91;4967150;28;20042;-58
2022/09/23 11:01:40;;;;;;;9.43;4.07;;;;;;;17.99;49.96;99239.16;4970347;28;20038;-57
2022/09/23 11:04:05;;;;;;;6.10;3.30;;;;;;;17.75;50.24;99231.22;4969604;28;20521;-57
2022/09/23 11:06:57;;;;;;;5.40;2.67;;;;;;;17.55;49.82;99218.59;4952666;28;20057;-55
2022/09/23 11:10:04;;;;;;;5.03;2.55;;;;;;;17.52;49.23;99218.00;4972497;28;20049;-56
2022/09/23 11:12:34;;;;;;;8.95;4.55;;;;;;;17.64;48.47;99214.50;4953422;28;20116;-60
2022/09/23 11:15:30;;;;;;;7.93;3.75;;;;;;;17.91;47.61;99223.06;4976356;28;20039;-54
2022/09/23 11:18:10;;;;;;;12.35;7.63;;;;;;;18.29;46.98;99224.72;4965068;28;20471;-57
2022/09/23 11:21:01;;;;;;;8.13;3.60;;;;;;;18.79;46.67;99231.56;4966436;28;20399;-57
2022/09/23 11:24:02;;;;;;;3.75;2.50;;;;;;;19.66;45.18;99218.63;4962486;28;20133;-58
2022/09/23 11:26:41;;;;;;;4.72;2.55;;;;;;;20.08;43.49;99209.06;4950961;28;20054;-56
2022/09/23 11:29:45;;;;;;;5.28;3.55;;;;;;;19.85;43.00;99197.72;4969027;28;20093;-59
2022/09/23 11:32:37;;;;;;;8.35;3.70;;;;;;;19.86;42.65;99196.75;4967191;28;20039;-57
2022/09/23 11:35:26;;;;;;;4.85;3.45;;;;;;;20.34;42.05;99182.38;4965252;28;20046;-57
2022/09/23 11:37:59;;;;;;;7.75;3.65;;;;;;;20.09;41.81;99143.94;4969524;28;20046;-59
2022/09/23 11:40:33;;;;;;;6.05;2.80;;;;;;;20.57;41.57;99179.47;4962326;28;20042;-56
2022/09/23 11:43:17;;;;;;;6.15;3.03;;;;;;;20.35;41.80;99187.53;4971419;28;20038;-56
2022/09/23 11:45:54;;;;;;;7.57;2.95;;;;;;;20.06;42.31;99199.59;4929766;28;1235790;-58
2022/09/23 11:48:26;;;;;;;7.22;2.75;;;;;;;19.53;42.80;99169.56;4979408;28;20164;-58
2022/09/23 11:50:59;;;;;;;5.25;2.90;;;;;;;19.34;43.00;99175.44;4976486;28;20475;-56
2022/09/23 11:53:42;;;;;;;6.78;2.72;;;;;;;19.59;42.79;99198.94;4953659;28;20070;-55
2022/09/23 11:56:30;;;;;;;7.85;3.00;;;;;;;19.55;42.50;99186.97;4952060;28;20110;-55
2022/09/23 11:59:14;;;;;;;7.95;5.85;;;;;;;19.62;42.81;99184.69;4970894;28;20109;-56
2022/09/23 12:01:50;;;;;;;12.98;3.45;;;;;;;19.78;42.68;99193.06;4944204;28;20046;-54
2022/09/23 12:04:31;;;;;;;6.07;3.28;;;;;;;19.86;42.61;99196.75;4954027;28;20042;-55